Time;durP1;ratioP1;P1;durP2;ratioP2;P2;SDS_P1;SDS_P2;PMS_P1;PMS_P2;Temp;Humidity;BMP_temperature;BMP_pressure;BME280_temperature;BME280_humidity;BME280_pressure;Samples;Min_cycle;Max_cycle;Signal;HPM_P1;HPM_P2
2023/08/16 00:00:16;;;;;;;6.65;3.08;;;19.10;99.90;;;;;;5009963;28;20036;-91
2023/08/16 00:02:42;;;;;;;4.05;3.63;;;19.00;99.90;;;;;;5018663;28;20498;-88
2023/08/16 00:05:08;;;;;;;10.95;3.60;;;19.00;99.90;;;;;;5020627;28;20117;-87
2023/08/16 00:07:34;;;;;;;3.72;3.30;;;19.00;99.90;;;;;;5024174;28;20017;-87
2023/08/16 00:10:01;;;;;;;3.17;2.88;;;18.90;99.90;;;;;;5021523;28;20048;-88
2023/08/16 00:12:28;;;;;;;3.72;2.75;;;18.90;99.90;;;;;;5020755;28;20021;-90
2023/08/16 00:14:54;;;;;;;2.80;2.60;;;18.90;99.90;;;;;;5020724;28;20029;-88
2023/08/16 00:17:19;;;;;;;2.95;2.63;;;18.90;99.90;;;;;;5021585;28;20076;-87
2023/08/16 00:19:45;;;;;;;3.22;2.72;;;18.80;99.90;;;;;;5005363;28;20046;-87
2023/08/16 00:22:10;;;;;;;2.72;2.55;;;18.90;99.90;;;;;;5011862;28;20051;-87
2023/08/16 00:24:36;;;;;;;3.67;2.83;;;18.80;99.90;;;;;;5021039;28;20021;-87
2023/08/16 00:27:03;;;;;;;5.93;2.80;;;18.80;99.90;;;;;;5021306;28;20040;-88
2023/08/16 00:29:29;;;;;;;3.10;2.78;;;18.80;99.90;;;;;;5021030;28;20030;-88
2023/08/16 00:31:57;;;;;;;4.78;2.50;;;18.70;99.90;;;;;;5023305;28;20502;-87
2023/08/16 00:34:23;;;;;;;6.75;2.72;;;18.70;99.90;;;;;;5017314;28;20427;-87
2023/08/16 00:36:49;;;;;;;3.55;2.85;;;18.70;99.90;;;;;;5021282;28;20033;-87
2023/08/16 00:39:14;;;;;;;2.20;2.10;;;18.70;99.90;;;;;;5022209;28;20048;-88
2023/08/16 00:41:40;;;;;;;6.00;2.72;;;18.60;99.90;;;;;;5019429;28;20398;-90
2023/08/16 00:44:05;;;;;;;6.43;3.10;;;18.60;99.90;;;;;;5018846;28;20026;-87
2023/08/16 00:46:31;;;;;;;5.20;3.13;;;18.60;99.90;;;;;;5021379;28;20647;-88
2023/08/16 00:48:57;;;;;;;6.28;2.75;;;18.60;99.90;;;;;;5021699;28;20057;-89
2023/08/16 00:51:22;;;;;;;5.57;3.60;;;18.60;99.90;;;;;;5019625;28;20132;-87
2023/08/16 00:53:49;;;;;;;3.78;2.53;;;18.60;99.90;;;;;;5020581;28;20041;-91
2023/08/16 00:56:15;;;;;;;5.40;2.60;;;18.60;99.90;;;;;;5026130;28;20029;-88
2023/08/16 00:58:42;;;;;;;6.70;2.88;;;18.60;99.90;;;;;;5025517;28;20026;-90
2023/08/16 01:01:09;;;;;;;4.07;2.35;;;18.60;99.90;;;;;;5025993;28;20520;-88
2023/08/16 01:03:34;;;;;;;3.30;2.78;;;18.60;99.90;;;;;;5019277;28;20076;-88
2023/08/16 01:06:00;;;;;;;7.13;2.78;;;18.70;99.90;;;;;;5022854;28;20404;-88
2023/08/16 01:08:25;;;;;;;5.00;3.30;;;18.60;99.90;;;;;;5027682;28;20084;-88
2023/08/16 01:11:05;;;;;;;3.10;2.80;;;18.70;99.90;;;;;;5023909;28;20041;-87
2023/08/16 01:13:53;;;;;;;3.53;2.90;;;18.70;99.90;;;;;;5021181;28;20029;-89
2023/08/16 01:16:21;;;;;;;8.43;3.40;;;18.70;99.90;;;;;;5024632;28;20495;-87
2023/08/16 01:18:50;;;;;;;7.25;3.47;;;18.70;99.90;;;;;;5026649;28;20637;-89
2023/08/16 01:21:16;;;;;;;4.50;3.88;;;18.60;99.90;;;;;;5024420;28;20362;-88
2023/08/16 01:24:04;;;;;;;3.88;3.55;;;18.60;99.90;;;;;;5024413;28;20028;-88
2023/08/16 01:26:37;;;;;;;3.65;3.35;;;18.60;99.90;;;;;;5020602;28;20150;-88
2023/08/16 01:29:05;;;;;;;3.83;3.15;;;18.60;99.90;;;;;;5026153;28;20029;-88
2023/08/16 01:31:33;;;;;;;12.50;6.03;;;18.60;99.90;;;;;;5023547;28;20125;-88
2023/08/16 01:33:59;;;;;;;15.57;6.85;;;18.50;99.90;;;;;;5022068;28;20498;-91
2023/08/16 01:36:28;;;;;;;8.65;6.22;;;18.50;99.90;;;;;;5023694;28;20071;-88
2023/08/16 01:38:56;;;;;;;7.00;5.25;;;18.50;99.90;;;;;;5023204;28;20018;-88
2023/08/16 01:41:41;;;;;;;6.55;5.05;;;18.50;99.90;;;;;;5019399;28;20029;-87
2023/08/16 01:44:08;;;;;;;14.27;6.20;;;18.50;99.90;;;;;;5019388;28;20068;-88
2023/08/16 01:46:37;;;;;;;6.53;5.15;;;18.50;99.90;;;;;;5023148;28;20014;-88
2023/08/16 01:49:04;;;;;;;6.47;5.45;;;18.60;99.90;;;;;;5026138;28;20486;-90
2023/08/16 01:51:30;;;;;;;7.00;5.20;;;18.60;99.90;;;;;;5018691;28;20037;-87
2023/08/16 01:53:55;;;;;;;6.05;5.28;;;18.60;99.90;;;;;;5019514;28;20043;-88
2023/08/16 01:56:21;;;;;;;6.63;5.63;;;18.50;99.90;;;;;;5025699;28;20025;-88
2023/08/16 01:58:47;;;;;;;6.90;5.60;;;18.50;99.90;;;;;;5026595;28;20025;-87
2023/08/16 02:01:14;;;;;;;11.25;5.28;;;18.50;99.90;;;;;;5020586;28;20033;-88
2023/08/16 02:03:39;;;;;;;7.00;5.30;;;18.50;99.90;;;;;;5020100;28;20030;-88
2023/08/16 02:06:05;;;;;;;7.18;5.18;;;18.60;99.90;;;;;;5024256;28;20026;-87
2023/08/16 02:08:31;;;;;;;6.68;5.18;;;18.50;99.90;;;;;;5025061;28;20508;-87
2023/08/16 02:10:56;;;;;;;5.25;4.75;;;18.60;99.90;;;;;;5024191;28;20070;-88
2023/08/16 02:13:23;;;;;;;6.45;4.68;;;18.50;99.90;;;;;;5024151;28;20051;-87
2023/08/16 02:15:49;;;;;;;6.13;5.28;;;18.50;99.90;;;;;;5025551;28;20076;-88
2023/08/16 02:18:14;;;;;;;8.23;5.38;;;18.50;99.90;;;;;;5019712;28;20033;-87
2023/08/16 02:20:40;;;;;;;7.28;5.60;;;18.50;99.90;;;;;;5023234;28;20018;-88
2023/08/16 02:23:07;;;;;;;9.35;4.95;;;18.50;99.90;;;;;;5022100;28;20033;-87
2023/08/16 02:25:32;;;;;;;9.75;6.15;;;18.50;99.90;;;;;;5026017;28;20132;-87
2023/08/16 02:27:59;;;;;;;14.80;7.78;;;18.40;99.90;;;;;;5025000;28;20519;-90
2023/08/16 02:30:24;;;;;;;10.23;7.28;;;18.40;99.90;;;;;;5021313;28;20401;-88
2023/08/16 02:32:50;;;;;;;9.43;6.95;;;18.40;99.90;;;;;;5016538;28;20044;-87
2023/08/16 02:35:16;;;;;;;7.43;6.35;;;18.40;99.90;;;;;;5021329;28;20022;-88
2023/08/16 02:37:42;;;;;;;11.65;6.32;;;18.40;99.90;;;;;;5026179;28;20032;-88
2023/08/16 02:40:11;;;;;;;12.18;7.20;;;18.40;99.90;;;;;;5025075;28;20389;-90
2023/08/16 02:42:37;;;;;;;16.10;8.52;;;18.40;99.90;;;;;;5023173;28;20029;-86
2023/08/16 02:45:03;;;;;;;13.88;8.68;;;18.40;99.90;;;;;;5020305;28;20394;-87
2023/08/16 02:47:28;;;;;;;13.13;8.30;;;18.40;99.90;;;;;;5020662;28;20026;-87
2023/08/16 02:49:54;;;;;;;11.60;7.72;;;18.30;99.90;;;;;;5025334;28;20045;-88
2023/08/16 02:52:20;;;;;;;10.30;7.38;;;18.40;99.90;;;;;;5020973;28;20533;-87
2023/08/16 02:54:45;;;;;;;10.23;7.30;;;18.40;99.90;;;;;;5019795;28;20390;-87
2023/08/16 02:57:11;;;;;;;9.45;7.03;;;18.40;99.90;;;;;;5016520;28;20045;-88
2023/08/16 02:59:41;;;;;;;7.60;6.55;;;18.50;99.90;;;;;;5018082;28;20022;-87
2023/08/16 03:02:07;;;;;;;13.75;7.55;;;18.50;99.90;;;;;;5019488;28;20059;-88
2023/08/16 03:04:44;;;;;;;15.18;9.45;;;18.60;99.90;;;;;;5017931;28;20033;-91
2023/08/16 03:07:11;;;;;;;12.75;8.43;;;18.60;99.90;;;;;;5016338;28;20112;-89
2023/08/16 03:09:37;;;;;;;19.80;8.40;;;18.60;99.90;;;;;;5013929;28;20025;-87
2023/08/16 03:12:04;;;;;;;9.85;7.68;;;18.60;99.90;;;;;;5018980;28;20030;-88
2023/08/16 03:14:30;;;;;;;9.05;7.10;;;18.60;99.90;;;;;;5016386;28;20033;-87
2023/08/16 03:16:56;;;;;;;14.05;8.50;;;18.60;99.90;;;;;;5020398;28;20083;-87
2023/08/16 03:19:22;;;;;;;13.07;9.48;;;18.70;99.90;;;;;;5016680;28;20084;-88
2023/08/16 03:21:47;;;;;;;16.05;9.52;;;18.70;99.90;;;;;;5019396;28;20380;-88
2023/08/16 03:24:13;;;;;;;20.15;10.82;;;18.70;99.90;;;;;;5019197;28;20047;-87
2023/08/16 03:26:39;;;;;;;15.18;10.10;;;18.70;99.90;;;;;;5014892;28;20425;-88
2023/08/16 03:29:05;;;;;;;18.92;10.60;;;18.70;99.90;;;;;;5019822;28;20037;-87
2023/08/16 03:31:30;;;;;;;16.85;9.77;;;18.70;99.90;;;;;;5021949;28;20087;-87
2023/08/16 03:33:56;;;;;;;15.65;9.70;;;18.70;99.90;;;;;;5017150;28;20479;-87
2023/08/16 03:36:22;;;;;;;13.32;9.00;;;18.60;99.90;;;;;;5019591;28;20756;-87
2023/08/16 03:38:48;;;;;;;17.75;11.00;;;18.70;99.90;;;;;;5018637;28;20053;-89
2023/08/16 03:41:13;;;;;;;17.10;11.63;;;18.70;99.90;;;;;;5020768;28;20107;-87
2023/08/16 03:43:57;;;;;;;23.63;12.63;;;18.60;99.90;;;;;;5021782;28;20025;-86
2023/08/16 03:46:22;;;;;;;16.55;11.45;;;18.60;99.90;;;;;;5021083;28;20070;-86
2023/08/16 03:48:48;;;;;;;21.77;13.38;;;18.60;99.90;;;;;;5019888;28;20430;-87
2023/08/16 03:51:13;;;;;;;18.75;11.45;;;18.60;99.90;;;;;;5014284;28;20049;-87
2023/08/16 03:53:39;;;;;;;22.20;13.13;;;18.70;99.90;;;;;;5021080;28;20112;-87
2023/08/16 03:56:04;;;;;;;19.70;13.52;;;18.60;99.90;;;;;;5018687;28;20037;-87
2023/08/16 03:58:30;;;;;;;17.17;11.85;;;18.70;99.90;;;;;;5019543;28;20243;-87
2023/08/16 04:00:56;;;;;;;20.63;13.10;;;18.70;99.90;;;;;;5022687;28;20041;-87
2023/08/16 04:03:21;;;;;;;16.40;11.82;;;18.70;99.90;;;;;;5024227;28;21562;-86
2023/08/16 04:05:47;;;;;;;22.10;13.90;;;18.70;99.90;;;;;;5021152;28;20263;-86
2023/08/16 04:08:13;;;;;;;27.00;14.45;;;18.70;99.90;;;;;;5018916;28;20287;-86
2023/08/16 04:10:38;;;;;;;25.02;14.07;;;18.70;99.90;;;;;;5021324;28;20045;-86
2023/08/16 04:13:04;;;;;;;25.75;14.73;;;18.70;99.90;;;;;;5020146;28;20029;-89
2023/08/16 04:15:30;;;;;;;21.75;14.30;;;18.70;99.90;;;;;;5020316;28;20033;-86
2023/08/16 04:17:56;;;;;;;20.77;12.23;;;18.80;99.90;;;;;;5021000;28;20029;-87
2023/08/16 04:20:23;;;;;;;24.73;15.10;;;18.80;99.90;;;;;;5020120;28;20093;-86
2023/08/16 04:22:49;;;;;;;18.88;13.15;;;18.80;99.90;;;;;;5021938;28;20029;-87
2023/08/16 04:25:15;;;;;;;20.58;13.30;;;18.80;99.90;;;;;;5020956;28;20041;-87
2023/08/16 04:27:42;;;;;;;23.73;14.45;;;18.90;99.90;;;;;;5024737;28;20092;-87
2023/08/16 04:30:09;;;;;;;23.05;13.98;;;18.90;99.90;;;;;;5020566;28;20053;-86
2023/08/16 04:32:38;;;;;;;22.02;14.32;;;18.90;99.90;;;;;;5024670;28;20045;-87
2023/08/16 04:35:04;;;;;;;18.20;12.18;;;18.90;99.90;;;;;;5018933;28;20021;-87
2023/08/16 04:37:29;;;;;;;19.33;12.43;;;18.90;99.90;;;;;;5020163;28;20592;-86
2023/08/16 04:39:59;;;;;;;25.23;14.77;;;18.90;99.90;;;;;;5020453;28;20037;-88
2023/08/16 04:42:24;;;;;;;23.90;15.85;;;19.00;99.90;;;;;;5022154;28;20120;-86
2023/08/16 04:44:50;;;;;;;28.90;16.85;;;18.90;99.90;;;;;;5016273;28;20129;-86
2023/08/16 04:47:16;;;;;;;27.33;15.23;;;19.00;99.90;;;;;;5019979;28;20474;-86
2023/08/16 04:49:45;;;;;;;24.52;14.43;;;19.10;99.90;;;;;;5017925;28;20021;-87
2023/08/16 04:52:10;;;;;;;22.40;14.27;;;19.00;99.90;;;;;;5019271;28;20037;-86
2023/08/16 04:54:39;;;;;;;22.02;14.52;;;19.00;99.90;;;;;;5016138;28;20029;-86
2023/08/16 04:57:04;;;;;;;31.80;16.70;;;19.00;99.90;;;;;;5019597;28;20108;-86
2023/08/16 04:59:30;;;;;;;29.52;18.38;;;19.00;99.90;;;;;;5018259;28;20482;-85
2023/08/16 05:01:56;;;;;;;27.92;16.45;;;19.00;99.90;;;;;;5018828;28;20483;-87
2023/08/16 05:04:24;;;;;;;24.60;14.15;;;19.00;99.90;;;;;;5023449;28;20025;-86
2023/08/16 05:06:50;;;;;;;20.10;11.75;;;19.00;99.90;;;;;;5020130;28;20041;-85
2023/08/16 05:09:15;;;;;;;21.73;12.73;;;19.00;99.90;;;;;;5016737;28;20424;-85
2023/08/16 05:11:41;;;;;;;16.52;11.45;;;19.00;99.90;;;;;;5018852;28;20108;-86
2023/08/16 05:14:09;;;;;;;14.32;9.82;;;19.10;99.90;;;;;;5019666;28;20036;-86
2023/08/16 05:16:38;;;;;;;16.02;11.07;;;19.00;99.90;;;;;;5013343;28;20038;-85
2023/08/16 05:19:04;;;;;;;14.55;9.60;;;19.10;99.90;;;;;;5021304;28;20080;-89
2023/08/16 05:21:29;;;;;;;16.45;9.57;;;19.10;99.90;;;;;;5013908;28;20052;-86
2023/08/16 05:23:55;;;;;;;18.92;10.70;;;19.10;99.90;;;;;;5019924;28;20037;-87
2023/08/16 05:26:21;;;;;;;26.95;13.50;;;19.10;99.90;;;;;;5012915;28;20141;-85
2023/08/16 05:28:46;;;;;;;23.27;12.85;;;19.10;99.90;;;;;;5018828;28;20084;-85
2023/08/16 05:31:13;;;;;;;21.23;13.25;;;19.10;99.90;;;;;;5024719;28;20045;-86
2023/08/16 05:33:42;;;;;;;19.17;12.40;;;19.10;99.90;;;;;;5020905;28;20391;-85
2023/08/16 05:36:11;;;;;;;27.00;13.82;;;19.10;99.90;;;;;;5026228;28;20172;-87
2023/08/16 05:38:37;;;;;;;20.77;13.40;;;19.20;99.90;;;;;;5023621;28;20029;-85
2023/08/16 05:41:08;;;;;;;23.00;13.23;;;19.10;99.90;;;;;;5019138;28;20025;-86
2023/08/16 05:43:34;;;;;;;19.08;12.82;;;19.20;99.90;;;;;;5022076;28;20059;-85
2023/08/16 05:45:59;;;;;;;21.42;13.30;;;19.20;99.90;;;;;;5016082;28;20030;-86
2023/08/16 05:48:25;;;;;;;16.92;11.93;;;19.20;99.90;;;;;;5036746;28;20076;-86
2023/08/16 05:50:51;;;;;;;25.38;13.57;;;19.20;99.90;;;;;;5018554;28;20049;-85
2023/08/16 05:53:16;;;;;;;19.73;11.63;;;19.10;99.90;;;;;;5024747;28;20034;-85
2023/08/16 05:55:43;;;;;;;23.63;14.32;;;19.20;99.90;;;;;;5023521;28;20029;-87
2023/08/16 05:58:09;;;;;;;21.83;14.43;;;19.20;99.90;;;;;;5024939;28;20572;-86
2023/08/16 06:00:34;;;;;;;21.27;12.77;;;19.20;99.90;;;;;;5026819;28;20032;-85
2023/08/16 06:03:00;;;;;;;25.23;13.90;;;19.20;99.90;;;;;;5026218;28;20021;-85
2023/08/16 06:05:26;;;;;;;23.40;13.75;;;19.20;99.90;;;;;;5026035;28;20550;-86
2023/08/16 06:07:52;;;;;;;29.33;13.88;;;19.20;99.90;;;;;;5027006;28;20026;-85
2023/08/16 06:10:17;;;;;;;18.35;13.45;;;19.30;99.90;;;;;;5021996;28;20049;-85
2023/08/16 06:12:43;;;;;;;26.42;14.73;;;19.30;99.90;;;;;;5025236;28;20352;-85
2023/08/16 06:15:11;;;;;;;26.15;16.83;;;19.30;99.90;;;;;;5027869;28;20502;-83
2023/08/16 06:17:38;;;;;;;27.02;15.13;;;19.30;99.90;;;;;;5027374;28;20025;-84
2023/08/16 06:20:07;;;;;;;21.75;14.00;;;19.40;99.90;;;;;;5025727;28;20037;-84
2023/08/16 06:22:34;;;;;;;35.10;19.70;;;19.40;99.90;;;;;;5025300;28;20042;-84
2023/08/16 06:25:00;;;;;;;34.85;20.17;;;19.40;99.90;;;;;;5028414;28;20135;-84
2023/08/16 06:27:25;;;;;;;33.17;19.75;;;19.40;99.90;;;;;;5024002;28;20030;-84
2023/08/16 06:29:51;;;;;;;27.58;17.65;;;19.50;99.90;;;;;;5025106;28;20038;-84
2023/08/16 06:32:17;;;;;;;41.25;22.55;;;19.50;99.90;;;;;;5019520;28;20025;-84
2023/08/16 06:34:43;;;;;;;31.63;18.15;;;19.50;99.90;;;;;;5027042;28;20032;-85
2023/08/16 06:37:09;;;;;;;28.35;17.55;;;19.50;99.90;;;;;;5027910;28;20029;-84
2023/08/16 06:39:34;;;;;;;49.70;24.98;;;19.50;99.90;;;;;;5024360;28;20033;-83
2023/08/16 06:42:00;;;;;;;49.30;26.17;;;19.50;99.90;;;;;;5024406;28;20475;-84
2023/08/16 06:44:26;;;;;;;41.92;25.05;;;19.50;99.90;;;;;;5024458;28;20036;-85
2023/08/16 06:46:51;;;;;;;37.13;21.20;;;19.50;99.90;;;;;;5025595;28;20120;-84
2023/08/16 06:49:17;;;;;;;33.22;21.73;;;19.50;99.90;;;;;;5022129;28;20037;-85
2023/08/16 06:51:43;;;;;;;43.65;24.45;;;19.50;99.90;;;;;;5024965;28;20038;-85
2023/08/16 06:54:08;;;;;;;29.75;18.52;;;19.50;99.90;;;;;;5024547;28;20021;-85
2023/08/16 06:56:34;;;;;;;58.25;28.35;;;19.50;99.90;;;;;;5023406;28;20021;-84
2023/08/16 06:58:59;;;;;;;52.05;24.90;;;19.60;99.90;;;;;;5028275;28;20037;-84
2023/08/16 07:01:25;;;;;;;38.58;22.08;;;19.60;99.90;;;;;;5023546;28;20022;-84
2023/08/16 07:03:51;;;;;;;48.10;26.88;;;19.60;99.90;;;;;;5025750;28;20104;-84
2023/08/16 07:06:17;;;;;;;48.05;25.83;;;19.70;99.90;;;;;;5028345;28;20030;-84
2023/08/16 07:08:46;;;;;;;55.50;29.50;;;19.70;99.90;;;;;;5027854;28;20399;-86
2023/08/16 07:11:11;;;;;;;58.78;27.50;;;19.80;99.90;;;;;;5026849;28;20048;-84
2023/08/16 07:13:37;;;;;;;51.75;28.35;;;19.80;99.90;;;;;;5026214;28;20640;-84
2023/08/16 07:16:04;;;;;;;55.88;30.90;;;19.80;99.90;;;;;;5022318;28;20032;-85
2023/08/16 07:18:29;;;;;;;44.97;25.73;;;19.80;99.90;;;;;;5025281;28;20378;-84
2023/08/16 07:20:55;;;;;;;44.47;25.23;;;19.90;99.90;;;;;;5025538;28;20032;-85
2023/08/16 07:23:21;;;;;;;40.30;24.27;;;19.90;99.90;;;;;;5025298;28;20025;-84
2023/08/16 07:25:46;;;;;;;54.65;27.75;;;19.90;99.90;;;;;;5025560;28;20045;-85
2023/08/16 07:28:13;;;;;;;53.08;28.13;;;19.90;99.90;;;;;;5019222;28;20129;-86
2023/08/16 07:30:39;;;;;;;45.53;26.67;;;20.00;99.90;;;;;;5023208;28;20132;-85
2023/08/16 07:33:05;;;;;;;45.28;24.48;;;20.00;99.90;;;;;;5025369;28;20167;-85
2023/08/16 07:35:31;;;;;;;37.42;20.00;;;20.00;99.90;;;;;;5031227;28;20029;-85
2023/08/16 07:37:57;;;;;;;33.08;19.33;;;20.00;99.90;;;;;;5023781;28;20040;-85
2023/08/16 07:40:22;;;;;;;40.38;22.67;;;20.10;99.90;;;;;;5026158;28;20026;-85
2023/08/16 07:42:48;;;;;;;38.45;21.25;;;20.10;99.90;;;;;;5024067;28;20034;-85
2023/08/16 07:45:14;;;;;;;36.92;20.55;;;20.10;99.90;;;;;;5025650;28;20385;-87
2023/08/16 07:47:39;;;;;;;33.90;19.25;;;20.10;99.90;;;;;;5024877;28;20025;-86
2023/08/16 07:50:05;;;;;;;39.50;19.17;;;20.10;99.90;;;;;;5017884;28;20060;-86
2023/08/16 07:52:31;;;;;;;40.60;22.17;;;20.20;99.90;;;;;;5026886;28;20433;-85
2023/08/16 07:54:56;;;;;;;41.28;22.35;;;20.20;99.90;;;;;;5021926;28;20405;-86
2023/08/16 07:57:22;;;;;;;39.60;21.27;;;20.30;99.90;;;;;;5025896;28;20021;-85
2023/08/16 07:59:48;;;;;;;38.70;20.08;;;20.30;99.90;;;;;;5025375;28;20116;-85
2023/08/16 08:02:14;;;;;;;32.17;19.63;;;20.30;99.90;;;;;;5022633;28;20036;-88
2023/08/16 08:04:39;;;;;;;41.80;20.95;;;20.30;99.90;;;;;;5028122;28;20060;-86
2023/08/16 08:07:05;;;;;;;41.63;19.55;;;20.30;99.90;;;;;;5022570;28;20482;-86
2023/08/16 08:09:31;;;;;;;40.15;21.58;;;20.30;99.90;;;;;;5025344;28;20743;-86
2023/08/16 08:11:58;;;;;;;35.08;20.75;;;20.30;99.90;;;;;;5023773;28;20041;-87
2023/08/16 08:14:23;;;;;;;33.45;19.27;;;20.40;99.90;;;;;;5027731;28;20036;-86
2023/08/16 08:16:49;;;;;;;39.55;20.55;;;20.40;99.90;;;;;;5022072;28;20030;-87
2023/08/16 08:19:15;;;;;;;33.60;18.58;;;20.40;99.90;;;;;;5029809;28;20033;-87
2023/08/16 08:21:41;;;;;;;27.98;17.58;;;20.40;99.90;;;;;;5022971;28;20037;-87
2023/08/16 08:24:07;;;;;;;39.05;22.08;;;20.40;99.90;;;;;;5014681;28;20034;-87
2023/08/16 08:26:33;;;;;;;28.83;18.20;;;20.40;99.90;;;;;;5023669;28;20050;-87
2023/08/16 08:28:59;;;;;;;30.35;17.50;;;20.40;99.90;;;;;;5021341;28;20522;-87
2023/08/16 08:31:25;;;;;;;32.35;19.30;;;20.40;99.90;;;;;;5022068;28;20400;-87
2023/08/16 08:33:51;;;;;;;31.88;18.38;;;20.40;99.90;;;;;;5025352;28;20026;-87
2023/08/16 08:36:16;;;;;;;44.35;21.75;;;20.40;99.90;;;;;;5009043;28;20022;-87
2023/08/16 08:38:42;;;;;;;36.90;19.98;;;20.50;99.90;;;;;;5015997;28;20048;-88
2023/08/16 08:41:08;;;;;;;41.63;22.98;;;20.50;99.90;;;;;;5020124;28;20033;-88
2023/08/16 08:43:36;;;;;;;37.22;20.90;;;20.60;99.90;;;;;;5018588;28;20026;-88
2023/08/16 08:46:04;;;;;;;32.25;19.40;;;20.60;99.90;;;;;;5014947;28;20099;-88
2023/08/16 08:48:30;;;;;;;50.15;21.65;;;20.70;99.90;;;;;;5024783;28;20025;-88
2023/08/16 08:50:57;;;;;;;27.80;17.40;;;20.70;99.90;;;;;;5021131;28;20482;-90
2023/08/16 08:53:26;;;;;;;35.40;21.05;;;20.80;99.90;;;;;;5020259;28;20025;-89
2023/08/16 08:55:53;;;;;;;30.15;17.48;;;20.80;99.90;;;;;;5013299;28;20025;-88
2023/08/16 08:58:20;;;;;;;28.35;16.70;;;20.90;99.90;;;;;;5018837;28;20124;-88
2023/08/16 09:00:46;;;;;;;24.98;16.40;;;20.90;99.90;;;;;;5020246;28;20101;-89
2023/08/16 09:03:15;;;;;;;30.63;17.67;;;20.90;99.90;;;;;;5023476;28;20029;-89
2023/08/16 09:05:42;;;;;;;27.02;16.15;;;21.00;99.90;;;;;;5027178;28;20025;-90
2023/08/16 09:08:15;;;;;;;26.48;16.67;;;21.00;99.90;;;;;;5028044;28;20034;-93
2023/08/16 09:10:41;;;;;;;29.17;17.25;;;21.10;99.90;;;;;;5025400;28;20437;-90
2023/08/16 09:13:10;;;;;;;28.52;17.90;;;21.10;99.90;;;;;;5025753;28;20021;-90
2023/08/16 09:15:39;;;;;;;25.63;15.55;;;21.30;99.90;;;;;;5021477;28;20055;-92
2023/08/16 09:18:16;;;;;;;33.55;17.42;;;21.20;99.90;;;;;;5026487;28;20041;-90
2023/08/16 09:20:44;;;;;;;36.55;18.95;;;21.30;99.90;;;;;;5025442;28;20033;-92
2023/08/16 09:23:13;;;;;;;30.85;16.67;;;21.30;99.90;;;;;;5025255;28;20112;-92
2023/08/16 09:25:39;;;;;;;26.77;15.43;;;21.30;99.90;;;;;;5020983;28;20045;-91
2023/08/16 09:28:12;;;;;;;24.58;14.18;;;21.40;99.90;;;;;;5022392;28;20032;-88
2023/08/16 09:30:40;;;;;;;27.60;14.80;;;21.40;99.90;;;;;;5020108;28;20065;-90
2023/08/16 09:33:07;;;;;;;31.15;17.00;;;21.40;99.90;;;;;;5025113;28;20595;-90
2023/08/16 09:35:33;;;;;;;30.67;17.02;;;21.50;99.90;;;;;;5027431;28;20029;-90
2023/08/16 09:38:00;;;;;;;24.75;16.45;;;21.50;99.90;;;;;;5026719;28;20033;-92
2023/08/16 09:40:29;;;;;;;29.92;16.33;;;21.50;99.90;;;;;;5024367;28;20301;-90
2023/08/16 09:42:59;;;;;;;28.95;17.25;;;21.60;99.90;;;;;;5029147;28;20033;-91
2023/08/16 09:45:27;;;;;;;23.48;15.38;;;21.60;99.90;;;;;;5026479;28;20021;-94
2023/08/16 09:48:04;;;;;;;30.40;14.95;;;21.60;99.90;;;;;;5026128;28;20486;-91
2023/08/16 09:50:33;;;;;;;26.17;16.42;;;21.60;99.90;;;;;;5021026;28;20046;-91
2023/08/16 09:53:01;;;;;;;27.85;13.48;;;21.70;99.90;;;;;;5024424;28;20117;-92
2023/08/16 09:55:30;;;;;;;17.60;11.73;;;21.70;99.90;;;;;;5024799;28;20079;-90
2023/08/16 09:57:58;;;;;;;19.60;12.70;;;21.80;99.90;;;;;;5025234;28;20046;-89
2023/08/16 10:00:28;;;;;;;20.40;12.90;;;21.90;99.90;;;;;;5028827;28;20033;-88
2023/08/16 10:02:55;;;;;;;18.02;12.25;;;21.80;99.90;;;;;;5029063;28;20044;-92
2023/08/16 10:05:21;;;;;;;19.55;10.32;;;21.80;99.90;;;;;;5024999;28;20040;-92
2023/08/16 10:07:51;;;;;;;18.75;9.95;;;21.70;99.90;;;;;;5022454;28;20029;-90
2023/08/16 10:10:18;;;;;;;20.25;10.82;;;21.70;99.90;;;;;;5021558;28;20049;-90
2023/08/16 10:12:46;;;;;;;16.02;9.45;;;21.70;99.90;;;;;;5023544;28;20029;-91
2023/08/16 10:15:12;;;;;;;12.45;8.90;;;21.60;99.90;;;;;;5022635;28;20028;-91
2023/08/16 10:17:42;;;;;;;15.63;8.80;;;21.60;99.90;;;;;;5024213;28;20037;-91
2023/08/16 10:20:19;;;;;;;11.20;8.15;;;21.60;99.90;;;;;;5022104;28;20072;-90
2023/08/16 10:22:50;;;;;;;12.40;8.35;;;21.50;99.90;;;;;;5019787;28;20509;-90
2023/08/16 10:25:23;;;;;;;15.50;9.52;;;21.50;99.90;;;;;;5025867;28;20060;-92
2023/08/16 10:27:50;;;;;;;15.07;8.82;;;21.50;99.90;;;;;;5022020;28;20030;-91
2023/08/16 10:30:21;;;;;;;16.65;10.13;;;21.50;99.90;;;;;;5023610;28;20041;-89
2023/08/16 10:32:51;;;;;;;17.35;8.32;;;21.50;99.90;;;;;;5022106;28;20036;-90
2023/08/16 10:35:18;;;;;;;16.55;9.90;;;21.50;99.90;;;;;;5018889;28;20429;-90
2023/08/16 10:37:46;;;;;;;13.90;9.55;;;21.50;99.90;;;;;;5023457;28;20057;-90
2023/08/16 10:40:16;;;;;;;13.05;10.38;;;21.50;99.90;;;;;;5021918;28;20440;-90
2023/08/16 10:42:51;;;;;;;15.88;10.15;;;21.50;99.90;;;;;;5025686;28;20368;-91
2023/08/16 10:45:24;;;;;;;12.60;9.52;;;21.50;99.90;;;;;;5018338;28;20029;-90
2023/08/16 10:47:50;;;;;;;16.52;9.48;;;21.60;99.90;;;;;;5014704;28;20065;-91
2023/08/16 10:50:16;;;;;;;11.68;8.27;;;21.60;99.90;;;;;;5021759;28;20069;-91
2023/08/16 10:52:42;;;;;;;15.13;9.70;;;21.60;99.90;;;;;;5025398;28;20041;-90
2023/08/16 10:55:11;;;;;;;16.35;10.35;;;21.60;99.90;;;;;;5021509;28;20022;-94
2023/08/16 10:57:39;;;;;;;17.67;9.63;;;21.70;99.90;;;;;;5022786;28;20056;-91
2023/08/16 11:00:08;;;;;;;15.48;10.85;;;21.90;99.90;;;;;;5016911;28;20040;-90
2023/08/16 11:02:40;;;;;;;12.73;9.73;;;21.90;99.90;;;;;;5024921;28;20025;-90
2023/08/16 11:05:15;;;;;;;11.57;8.35;;;21.90;99.90;;;;;;5017489;28;20142;-91
2023/08/16 11:07:43;;;;;;;13.93;8.93;;;21.90;99.90;;;;;;5019548;28;20022;-89
2023/08/16 11:10:09;;;;;;;11.18;8.10;;;21.90;99.90;;;;;;5023497;28;20089;-89
2023/08/16 11:12:34;;;;;;;14.48;8.57;;;21.90;99.90;;;;;;5026769;28;20053;-91
2023/08/16 11:15:04;;;;;;;11.00;8.85;;;21.90;99.90;;;;;;5026071;28;20342;-90
2023/08/16 11:17:32;;;;;;;12.98;8.20;;;21.80;99.90;;;;;;5027120;28;20022;-90
2023/08/16 11:20:00;;;;;;;12.95;8.57;;;21.80;99.90;;;;;;5026262;28;20275;-91
2023/08/16 11:22:29;;;;;;;24.60;10.65;;;21.90;99.90;;;;;;5029017;28;20036;-92
2023/08/16 11:24:55;;;;;;;13.48;9.20;;;21.90;99.90;;;;;;5023099;28;20077;-91
2023/08/16 11:27:24;;;;;;;12.90;9.18;;;21.90;99.90;;;;;;5024667;28;20465;-90
2023/08/16 11:29:52;;;;;;;13.57;8.77;;;21.90;99.90;;;;;;5025013;28;20103;-91
2023/08/16 11:32:37;;;;;;;16.10;10.55;;;21.90;99.90;;;;;;5023498;28;20493;-90
2023/08/16 11:35:11;;;;;;;21.00;10.40;;;22.00;99.90;;;;;;5023421;28;20036;-92
2023/08/16 11:37:40;;;;;;;13.68;9.52;;;22.00;99.90;;;;;;5021099;28;20028;-91
2023/08/16 11:40:09;;;;;;;16.67;8.55;;;22.00;99.90;;;;;;5018844;28;20082;-92
2023/08/16 11:42:35;;;;;;;15.30;9.60;;;22.00;99.90;;;;;;5023063;28;20262;-92
2023/08/16 11:45:03;;;;;;;16.13;9.73;;;22.00;99.90;;;;;;5028304;28;20260;-91
2023/08/16 11:47:29;;;;;;;13.68;9.10;;;22.00;99.90;;;;;;5021327;28;20504;-91
2023/08/16 11:49:58;;;;;;;14.68;10.02;;;22.10;99.90;;;;;;5023282;28;20068;-94
2023/08/16 11:52:27;;;;;;;15.95;10.15;;;22.00;99.90;;;;;;5024150;28;20351;-92
2023/08/16 11:55:06;;;;;;;13.23;10.35;;;22.10;99.90;;;;;;5026817;28;20162;-91
2023/08/16 11:57:33;;;;;;;14.15;9.57;;;22.10;99.90;;;;;;5024920;28;20025;-91
2023/08/16 12:00:02;;;;;;;15.40;10.32;;;22.10;99.90;;;;;;5027514;28;20038;-91
2023/08/16 12:02:29;;;;;;;20.17;10.88;;;22.20;99.90;;;;;;5022450;28;20028;-94
2023/08/16 12:04:55;;;;;;;16.80;10.43;;;22.20;99.90;;;;;;5025300;28;20061;-95
2023/08/16 12:07:21;;;;;;;14.07;10.63;;;22.30;99.90;;;;;;5025090;28;20021;-94
2023/08/16 12:09:50;;;;;;;14.63;10.85;;;22.30;99.90;;;;;;5032794;28;20020;-92
2023/08/16 12:12:18;;;;;;;17.88;11.18;;;22.30;99.90;;;;;;5030927;28;20022;-94
2023/08/16 12:14:44;;;;;;;15.52;11.23;;;22.30;99.90;;;;;;5028465;28;20032;-92
2023/08/16 12:17:10;;;;;;;14.18;11.02;;;22.30;99.90;;;;;;5025170;28;20025;-94
2023/08/16 12:19:36;;;;;;;15.95;11.20;;;22.30;99.90;;;;;;5028512;28;20104;-94
2023/08/16 12:22:02;;;;;;;17.55;10.05;;;22.20;99.90;;;;;;5026425;28;20120;-91
2023/08/16 12:24:27;;;;;;;15.70;11.05;;;22.20;99.90;;;;;;5026752;28;20517;-91
2023/08/16 12:26:53;;;;;;;17.55;10.80;;;22.20;99.90;;;;;;5028173;28;20028;-93
2023/08/16 12:29:19;;;;;;;16.75;11.23;;;22.20;99.90;;;;;;5024431;28;20030;-95
2023/08/16 12:31:45;;;;;;;14.25;11.77;;;22.20;99.90;;;;;;5027719;28;20040;-94